Time;durP1;ratioP1;P1;durP2;ratioP2;P2;SDS_P1;SDS_P2;PMS_P1;PMS_P2;Temp;Humidity;BMP_temperature;BMP_pressure;BME280_temperature;BME280_humidity;BME280_pressure;Samples;Min_cycle;Max_cycle;Signal;HPM_P1;HPM_P2
2022/04/27 00:02:10;;;;;;;9.73;5.67;;;7.90;1.00;;;;;;5011761;28;20207;-57
2022/04/27 00:04:37;;;;;;;7.30;5.57;;;7.80;1.00;;;;;;5011897;28;20207;-60
2022/04/27 00:07:06;;;;;;;8.27;5.30;;;7.90;1.00;;;;;;5011688;28;20207;-60
2022/04/27 00:09:33;;;;;;;9.53;5.63;;;7.90;1.00;;;;;;5011899;28;20227;-61
2022/04/27 00:12:01;;;;;;;7.53;5.23;;;7.90;1.00;;;;;;5011891;28;20298;-60
2022/04/27 00:14:29;;;;;;;8.60;5.83;;;7.90;1.00;;;;;;5011696;28;20203;-59
2022/04/27 00:16:57;;;;;;;8.37;5.93;;;7.90;1.00;;;;;;5011436;28;20778;-60
2022/04/27 00:19:24;;;;;;;11.23;5.30;;;7.80;1.00;;;;;;5011401;28;20230;-59
2022/04/27 00:21:50;;;;;;;9.37;5.87;;;7.80;1.00;;;;;;5011606;28;20207;-60
2022/04/27 00:24:17;;;;;;;8.17;5.83;;;7.80;1.00;;;;;;5012078;28;20222;-61
2022/04/27 00:26:44;;;;;;;12.47;6.47;;;7.80;1.00;;;;;;5011918;28;20298;-61
2022/04/27 00:29:11;;;;;;;7.87;6.03;;;7.70;1.00;;;;;;5012306;28;20245;-61
2022/04/27 00:31:37;;;;;;;8.37;5.53;;;7.70;1.00;;;;;;5011600;28;20218;-60
2022/04/27 00:34:05;;;;;;;12.60;5.87;;;7.80;1.00;;;;;;5011577;28;20207;-61
2022/04/27 00:36:32;;;;;;;9.50;6.00;;;7.80;1.00;;;;;;5011010;28;20211;-61
2022/04/27 00:38:59;;;;;;;12.00;6.47;;;7.80;1.00;;;;;;5011564;28;20285;-61
2022/04/27 00:41:26;;;;;;;9.33;6.40;;;7.70;1.00;;;;;;5014177;28;20610;-61
2022/04/27 00:43:54;;;;;;;9.43;5.93;;;7.70;1.00;;;;;;5015172;28;20310;-61
2022/04/27 00:46:21;;;;;;;11.63;6.07;;;7.70;1.00;;;;;;5014806;28;20290;-61
2022/04/27 00:48:48;;;;;;;7.30;5.73;;;7.70;1.00;;;;;;5014667;28;20250;-61
2022/04/27 00:51:19;;;;;;;10.03;6.13;;;7.70;1.00;;;;;;5015294;28;20260;-61
2022/04/27 00:53:46;;;;;;;13.70;6.10;;;7.70;1.00;;;;;;5014884;28;20693;-61
2022/04/27 00:56:15;;;;;;;10.10;5.73;;;7.70;1.00;;;;;;5014701;28;20215;-61
2022/04/27 00:58:41;;;;;;;8.17;5.63;;;7.70;1.00;;;;;;5014683;28;20239;-61
2022/04/27 01:01:08;;;;;;;11.53;6.00;;;7.70;1.00;;;;;;5014758;28;20276;-61
2022/04/27 01:03:36;;;;;;;8.07;5.73;;;7.60;1.00;;;;;;5014287;28;20641;-61
2022/04/27 01:06:04;;;;;;;9.80;6.00;;;7.60;1.00;;;;;;5014645;28;20206;-61
2022/04/27 01:08:32;;;;;;;9.03;5.33;;;7.60;1.00;;;;;;5014836;28;20199;-61
2022/04/27 01:11:00;;;;;;;13.13;5.60;;;7.60;1.00;;;;;;5014607;28;20363;-61
2022/04/27 01:13:28;;;;;;;8.03;5.03;;;7.60;1.00;;;;;;5014706;28;20213;-61
2022/04/27 01:15:54;;;;;;;11.40;5.30;;;7.50;1.00;;;;;;5014140;28;20301;-60
2022/04/27 01:18:21;;;;;;;10.80;6.07;;;7.50;1.00;;;;;;5014836;28;20215;-61
2022/04/27 01:20:50;;;;;;;10.60;6.40;;;7.50;1.00;;;;;;5014766;28;20203;-61
2022/04/27 01:23:17;;;;;;;9.20;6.13;;;7.50;1.00;;;;;;5014998;28;20203;-61
2022/04/27 01:25:55;;;;;;;13.17;5.33;;;7.40;1.00;;;;;;5014412;28;20211;-61
2022/04/27 01:28:23;;;;;;;8.83;5.43;;;7.40;1.00;;;;;;5014202;28;20225;-61
2022/04/27 01:30:57;;;;;;;10.37;5.80;;;7.40;1.00;;;;;;5014142;28;20229;-61
2022/04/27 01:33:24;;;;;;;7.90;5.60;;;7.40;1.00;;;;;;5014500;28;20213;-59
2022/04/27 01:35:52;;;;;;;8.37;5.13;;;7.40;1.00;;;;;;5014235;28;20743;-61
2022/04/27 01:38:20;;;;;;;10.93;5.87;;;7.30;1.00;;;;;;5013811;28;20206;-61
2022/04/27 01:40:47;;;;;;;10.07;6.37;;;7.30;1.00;;;;;;5014155;28;20253;-55
2022/04/27 01:43:15;;;;;;;10.73;6.70;;;7.30;1.00;;;;;;5014097;28;20219;-56
2022/04/27 01:45:42;;;;;;;8.43;6.50;;;7.30;1.00;;;;;;5014139;28;20206;-58
2022/04/27 01:48:10;;;;;;;13.07;6.40;;;7.30;1.00;;;;;;5013710;28;20301;-57
2022/04/27 01:50:37;;;;;;;8.00;6.00;;;7.30;1.00;;;;;;5014059;28;20644;-60
2022/04/27 01:55:50;;;;;;;8.17;6.30;;;7.30;1.00;;;;;;5013759;28;20210;-58
2022/04/27 01:58:16;;;;;;;10.13;6.03;;;7.20;1.00;;;;;;5013609;28;20591;-58
2022/04/27 02:00:47;;;;;;;9.20;6.20;;;7.20;1.00;;;;;;5013460;28;20619;-58
2022/04/27 02:03:14;;;;;;;10.13;6.00;;;7.20;1.00;;;;;;5013920;28;20215;-58
2022/04/27 02:05:41;;;;;;;11.17;6.30;;;7.10;1.00;;;;;;5013441;28;20298;-59
2022/04/27 02:08:09;;;;;;;9.20;6.40;;;7.10;1.00;;;;;;5013247;28;20265;-61
2022/04/27 02:10:37;;;;;;;8.97;6.00;;;7.10;1.00;;;;;;5013522;28;20222;-57
2022/04/27 02:13:03;;;;;;;8.90;5.73;;;7.10;1.00;;;;;;5013662;28;20215;-59
2022/04/27 02:15:30;;;;;;;9.07;6.10;;;7.10;1.00;;;;;;5013517;28;20257;-57
2022/04/27 02:17:56;;;;;;;9.43;5.80;;;7.00;1.00;;;;;;5012935;28;20211;-58
2022/04/27 02:20:23;;;;;;;9.43;5.90;;;7.00;1.00;;;;;;5013084;28;20234;-61
2022/04/27 02:22:50;;;;;;;7.97;5.87;;;6.90;1.00;;;;;;5013153;28;20659;-59
2022/04/27 02:25:18;;;;;;;12.90;6.90;;;6.80;1.00;;;;;;5013453;28;20209;-58
2022/04/27 02:27:45;;;;;;;7.40;6.20;;;6.70;1.00;;;;;;5012780;28;20836;-60
2022/04/27 02:30:12;;;;;;;8.27;5.90;;;6.60;1.00;;;;;;5013178;28;20268;-61
2022/04/27 02:32:39;;;;;;;12.03;5.53;;;6.60;99.90;;;;;;5013459;28;20217;-60
2022/04/27 02:35:07;;;;;;;9.07;6.17;;;6.60;1.00;;;;;;5012821;28;20246;-59
2022/04/27 02:37:36;;;;;;;9.50;5.93;;;6.50;99.90;;;;;;5012999;28;20209;-58
2022/04/27 02:40:05;;;;;;;11.07;6.23;;;6.50;99.90;;;;;;5012841;28;20315;-56
2022/04/27 02:42:33;;;;;;;8.33;6.63;;;6.50;99.90;;;;;;5013096;28;20252;-59
2022/04/27 02:44:59;;;;;;;10.63;6.67;;;6.40;99.90;;;;;;5012723;28;20212;-60
2022/04/27 02:47:26;;;;;;;12.17;6.63;;;6.40;99.90;;;;;;5012524;28;20212;-60
2022/04/27 02:52:37;;;;;;;12.90;6.57;;;6.40;99.90;;;;;;5013020;28;20585;-61
2022/04/27 02:55:05;;;;;;;11.23;6.67;;;6.50;99.90;;;;;;5012783;28;20253;-61
2022/04/27 02:57:33;;;;;;;10.93;7.27;;;6.50;42.40;;;;;;5012441;28;20221;-61
2022/04/27 02:59:59;;;;;;;14.60;6.90;;;6.40;67.40;;;;;;5012422;28;20294;-59
2022/04/27 03:02:26;;;;;;;10.27;6.57;;;6.40;93.30;;;;;;5012650;28;20206;-61
2022/04/27 03:04:52;;;;;;;11.80;6.17;;;6.40;59.00;;;;;;5011894;28;20206;-59
2022/04/27 03:07:20;;;;;;;11.63;7.17;;;6.40;11.90;;;;;;5012050;28;20681;-61
2022/04/27 03:09:47;;;;;;;8.20;6.43;;;6.30;99.90;;;;;;5012348;28;20223;-61
2022/04/27 03:12:13;;;;;;;11.07;6.90;;;6.30;99.90;;;;;;5012350;28;20220;-61
2022/04/27 03:14:41;;;;;;;11.63;7.90;;;6.20;1.00;;;;;;5012470;28;20241;-58
2022/04/27 03:17:08;;;;;;;12.17;7.37;;;6.20;92.30;;;;;;5012306;28;20271;-59
2022/04/27 03:19:35;;;;;;;9.23;7.13;;;6.20;99.90;;;;;;5012199;28;20222;-61
2022/04/27 03:22:01;;;;;;;10.73;7.57;;;6.20;99.90;;;;;;5012502;28;20267;-58
2022/04/27 03:24:28;;;;;;;13.80;7.83;;;6.10;99.90;;;;;;5012161;28;20204;-61
2022/04/27 03:26:55;;;;;;;11.13;8.07;;;6.10;1.00;;;;;;5011886;28;20205;-59
2022/04/27 03:29:22;;;;;;;13.23;7.77;;;6.10;73.60;;;;;;5011766;28;20286;-59
2022/04/27 03:31:49;;;;;;;13.17;7.70;;;6.00;99.90;;;;;;5012452;28;20281;-60
2022/04/27 03:34:16;;;;;;;11.00;7.73;;;6.00;99.90;;;;;;5011992;28;20708;-61
2022/04/27 03:36:43;;;;;;;10.70;7.60;;;5.90;1.00;;;;;;5011691;28;20585;-56
2022/04/27 03:39:09;;;;;;;13.90;7.57;;;5.90;74.40;;;;;;5011742;28;20738;-58
2022/04/27 03:41:36;;;;;;;14.33;8.33;;;5.90;99.90;;;;;;5011906;28;20237;-60
2022/04/27 03:44:03;;;;;;;13.40;8.33;;;5.90;99.90;;;;;;5011919;28;20261;-61
2022/04/27 03:46:30;;;;;;;19.30;10.03;;;5.90;1.00;;;;;;5011718;28;20637;-58
2022/04/27 03:48:58;;;;;;;14.13;8.87;;;5.90;25.30;;;;;;5012152;28;20286;-61
2022/04/27 03:51:25;;;;;;;14.20;9.00;;;5.80;99.90;;;;;;5011849;28;20208;-61
2022/04/27 03:53:52;;;;;;;14.37;8.60;;;5.90;99.90;;;;;;5012018;28;20209;-61
2022/04/27 03:56:18;;;;;;;13.63;8.83;;;5.90;1.00;;;;;;5011493;28;20208;-61
2022/04/27 03:58:45;;;;;;;16.67;9.37;;;5.90;1.00;;;;;;5011837;28;20244;-61
2022/04/27 04:01:11;;;;;;;15.33;9.43;;;5.80;99.90;;;;;;5012054;28;20717;-59
2022/04/27 04:03:38;;;;;;;14.57;8.80;;;5.80;99.90;;;;;;5011640;28;20254;-59
2022/04/27 04:06:06;;;;;;;16.67;9.50;;;5.70;1.00;;;;;;5011631;28;20212;-60
2022/04/27 04:08:33;;;;;;;14.10;9.10;;;5.80;1.00;;;;;;5011694;28;20209;-59
2022/04/27 04:11:00;;;;;;;18.67;9.60;;;5.70;1.00;;;;;;5011593;28;20218;-59
2022/04/27 04:13:27;;;;;;;16.20;10.13;;;5.70;1.00;;;;;;5011652;28;20234;-59
2022/04/27 04:15:53;;;;;;;15.73;9.77;;;5.70;1.00;;;;;;5013793;28;20702;-61
2022/04/27 04:18:21;;;;;;;15.27;9.30;;;5.70;94.60;;;;;;5015771;28;20214;-61
2022/04/27 04:20:47;;;;;;;18.27;10.57;;;5.80;1.00;;;;;;5015420;28;20239;-62
2022/04/27 04:23:15;;;;;;;19.97;9.60;;;5.80;1.00;;;;;;5015723;28;20216;-61
2022/04/27 04:28:32;;;;;;;17.90;10.57;;;5.70;1.00;;;;;;5015553;28;20254;-61
2022/04/27 04:31:00;;;;;;;15.83;9.97;;;5.60;1.00;;;;;;5015304;28;20221;-62
2022/04/27 04:33:27;;;;;;;13.50;9.67;;;5.60;1.00;;;;;;5015443;28;20207;-61
2022/04/27 04:35:53;;;;;;;14.90;10.27;;;5.60;65.50;;;;;;5013575;28;20215;-62
2022/04/27 04:38:22;;;;;;;15.80;11.07;;;5.50;99.90;;;;;;5031543;28;20669;-61
2022/04/27 04:40:48;;;;;;;16.03;9.73;;;5.60;99.90;;;;;;5035383;28;20301;-61
2022/04/27 04:43:15;;;;;;;18.17;11.13;;;5.70;99.90;;;;;;5035786;28;20214;-61
2022/04/27 04:45:42;;;;;;;14.83;9.93;;;5.70;99.90;;;;;;5035839;28;20211;-61
2022/04/27 04:48:09;;;;;;;13.43;9.37;;;5.80;99.90;;;;;;5035101;28;20258;-62
2022/04/27 04:50:36;;;;;;;16.63;9.43;;;5.80;1.00;;;;;;5034553;28;20238;-62
2022/04/27 04:53:04;;;;;;;20.90;10.13;;;5.90;99.90;;;;;;5034754;28;20236;-63
2022/04/27 04:55:32;;;;;;;16.53;9.93;;;5.80;99.90;;;;;;5034554;28;20212;-62
2022/04/27 04:57:59;;;;;;;19.97;10.80;;;5.60;99.90;;;;;;5034306;28;20211;-62
2022/04/27 05:00:26;;;;;;;17.80;11.70;;;5.60;1.00;;;;;;5034021;28;20235;-62
2022/04/27 05:02:53;;;;;;;21.83;11.20;;;5.60;1.00;;;;;;5034613;28;20629;-61
2022/04/27 05:05:20;;;;;;;16.47;10.47;;;5.60;53.10;;;;;;5034147;28;20769;-61
2022/04/27 05:07:47;;;;;;;18.03;11.53;;;5.70;53.80;;;;;;5034229;28;20671;-61
2022/04/27 05:10:13;;;;;;;19.20;10.53;;;5.70;1.00;;;;;;5034704;28;20227;-61
2022/04/27 05:12:41;;;;;;;15.10;10.33;;;5.70;1.00;;;;;;5030985;28;20204;-62
2022/04/27 05:15:09;;;;;;;20.93;11.00;;;5.70;99.90;;;;;;5022918;28;20218;-58
2022/04/27 05:17:36;;;;;;;18.07;11.07;;;5.80;99.90;;;;;;5032545;28;20208;-58
2022/04/27 05:20:04;;;;;;;15.10;10.83;;;5.80;1.40;;;;;;5033754;28;20294;-59
2022/04/27 05:22:34;;;;;;;19.90;11.23;;;5.90;1.00;;;;;;5033690;28;20211;-56
2022/04/27 05:25:03;;;;;;;19.37;11.50;;;6.00;1.00;;;;;;5033744;28;20660;-58
2022/04/27 05:27:29;;;;;;;16.53;10.77;;;6.00;99.90;;;;;;5014832;28;20295;-57
2022/04/27 05:32:42;;;;;;;18.57;11.57;;;6.10;99.90;;;;;;5033827;28;20215;-58
2022/04/27 05:35:09;;;;;;;18.40;11.33;;;6.10;75.40;;;;;;5032970;28;20254;-59
2022/04/27 05:37:36;;;;;;;18.77;12.07;;;6.10;1.00;;;;;;5033013;28;20690;-57
2022/04/27 05:40:04;;;;;;;15.70;11.47;;;6.10;1.00;;;;;;5032842;28;20231;-59
2022/04/27 05:42:31;;;;;;;19.37;12.00;;;6.10;99.90;;;;;;5033374;28;20209;-56
2022/04/27 05:44:59;;;;;;;20.50;11.40;;;6.10;99.90;;;;;;5033293;28;20208;-56
2022/04/27 05:47:26;;;;;;;19.90;12.53;;;6.10;1.00;;;;;;5032634;28;20563;-56
2022/04/27 05:49:53;;;;;;;21.33;11.80;;;6.10;99.90;;;;;;5033494;28;20223;-57
2022/04/27 05:52:20;;;;;;;20.30;12.43;;;6.10;99.90;;;;;;5033057;28;20209;-56
2022/04/27 05:54:47;;;;;;;18.83;12.10;;;6.20;1.00;;;;;;5033555;28;20568;-57
2022/04/27 05:57:13;;;;;;;19.00;11.87;;;6.20;99.90;;;;;;5033248;28;20334;-60
2022/04/27 05:59:40;;;;;;;20.63;11.70;;;6.30;99.90;;;;;;5033024;28;20256;-59
2022/04/27 06:02:08;;;;;;;17.50;11.20;;;6.30;27.20;;;;;;5032637;28;20225;-56
2022/04/27 06:04:35;;;;;;;27.30;16.70;;;6.40;87.80;;;;;;5032720;28;20205;-59
2022/04/27 06:07:02;;;;;;;21.60;12.23;;;6.40;1.00;;;;;;5032455;28;20212;-60
2022/04/27 06:09:28;;;;;;;17.77;11.83;;;6.50;99.90;;;;;;5032432;28;20230;-61
2022/04/27 06:11:55;;;;;;;17.70;10.43;;;6.60;99.90;;;;;;5032621;28;20256;-62
2022/04/27 06:14:22;;;;;;;15.70;11.37;;;6.70;99.90;;;;;;5032820;28;20688;-57
2022/04/27 06:16:48;;;;;;;19.47;12.13;;;6.80;99.90;;;;;;5032493;28;20210;-61
2022/04/27 06:19:16;;;;;;;19.70;11.53;;;6.80;99.90;;;;;;5028861;28;20226;-56
2022/04/27 06:21:43;;;;;;;18.60;11.37;;;6.90;1.00;;;;;;5012364;28;20281;-55
2022/04/27 06:24:10;;;;;;;17.93;10.63;;;7.00;99.90;;;;;;5012524;28;20206;-55
2022/04/27 06:26:37;;;;;;;14.60;10.93;;;7.00;1.00;;;;;;5012217;28;20210;-60
2022/04/27 06:29:05;;;;;;;16.20;10.03;;;7.10;1.00;;;;;;5012342;28;20226;-61
2022/04/27 06:31:31;;;;;;;16.20;10.97;;;7.20;1.00;;;;;;5012966;28;20306;-54
2022/04/27 06:33:58;;;;;;;17.67;10.17;;;7.40;99.90;;;;;;5012112;28;20692;-53
2022/04/27 06:36:26;;;;;;;14.90;9.30;;;7.50;99.90;;;;;;5012279;28;20601;-59
2022/04/27 06:38:53;;;;;;;14.30;10.03;;;7.60;1.00;;;;;;5011491;28;20223;-61
2022/04/27 06:41:19;;;;;;;17.07;10.53;;;7.80;99.90;;;;;;5012342;28;20234;-59
2022/04/27 06:43:47;;;;;;;14.47;9.03;;;7.90;8.80;;;;;;5016479;28;20669;-62
2022/04/27 06:46:14;;;;;;;13.83;8.77;;;8.00;19.80;;;;;;5031360;28;20202;-60
2022/04/27 06:48:41;;;;;;;16.63;8.80;;;8.20;1.00;;;;;;5031922;28;20273;-58
2022/04/27 06:51:07;;;;;;;17.80;7.60;;;8.30;99.90;;;;;;5031492;28;20240;-60
2022/04/27 06:53:35;;;;;;;13.13;8.47;;;8.50;99.90;;;;;;5031779;28;20237;-60
2022/04/27 06:56:02;;;;;;;11.43;6.93;;;8.50;99.90;;;;;;5031468;28;20214;-58
2022/04/27 06:58:29;;;;;;;14.97;8.43;;;8.60;99.90;;;;;;5031873;28;20206;-60
2022/04/27 07:00:55;;;;;;;13.50;9.47;;;8.70;99.90;;;;;;5031703;28;20757;-59
2022/04/27 07:03:22;;;;;;;15.70;8.17;;;8.70;43.80;;;;;;5031367;28;20746;-58
2022/04/27 07:05:49;;;;;;;11.03;8.10;;;8.80;3.90;;;;;;5031573;28;20202;-59
2022/04/27 07:08:16;;;;;;;20.53;9.50;;;8.90;1.00;;;;;;5031538;28;20596;-60
2022/04/27 07:10:43;;;;;;;15.97;8.93;;;9.00;1.00;;;;;;5032260;28;20203;-59
2022/04/27 07:13:10;;;;;;;13.87;9.23;;;9.10;1.00;;;;;;5031542;28;20214;-58
2022/04/27 07:15:37;;;;;;;12.17;8.43;;;9.00;1.00;;;;;;5031125;28;20211;-59
2022/04/27 07:18:04;;;;;;;12.77;8.43;;;9.20;1.00;;;;;;5031296;28;20207;-61
2022/04/27 07:20:30;;;;;;;12.20;8.00;;;9.40;1.00;;;;;;5031080;28;20233;-60
2022/04/27 07:22:57;;;;;;;15.57;8.30;;;9.60;1.00;;;;;;5031770;28;20600;-59
2022/04/27 07:25:24;;;;;;;11.83;7.77;;;9.70;1.00;;;;;;5031671;28;20246;-59
2022/04/27 07:27:52;;;;;;;12.07;7.73;;;9.80;1.00;;;;;;5031201;28;20209;-57
2022/04/27 07:30:20;;;;;;;13.97;8.10;;;9.90;99.90;;;;;;5031002;28;20243;-59
2022/04/27 07:32:47;;;;;;;11.73;7.07;;;10.00;99.90;;;;;;5031108;28;20262;-61
2022/04/27 07:35:14;;;;;;;10.97;6.70;;;10.10;99.90;;;;;;5030857;28;20215;-61
2022/04/27 07:37:40;;;;;;;13.50;8.33;;;10.10;99.90;;;;;;5031132;28;20208;-62
2022/04/27 07:40:11;;;;;;;10.50;6.83;;;10.20;99.90;;;;;;5031013;28;20228;-63
2022/04/27 07:42:39;;;;;;;11.27;7.30;;;10.10;99.90;;;;;;5031510;28;20213;-63
2022/04/27 07:45:08;;;;;;;12.13;8.20;;;10.10;99.90;;;;;;5030719;28;20628;-62
2022/04/27 07:47:40;;;;;;;11.07;7.50;;;10.20;99.90;;;;;;5030726;28;20209;-63
2022/04/27 07:50:08;;;;;;;12.90;7.10;;;10.40;99.90;;;;;;5030192;28;20648;-65
2022/04/27 07:52:34;;;;;;;16.27;8.07;;;10.30;99.90;;;;;;5031222;28;20255;-65
2022/04/27 07:55:01;;;;;;;11.90;6.93;;;10.40;99.90;;;;;;5030845;28;20243;-64
2022/04/27 07:57:29;;;;;;;10.33;7.70;;;10.50;99.90;;;;;;5030582;28;20259;-63
2022/04/27 07:59:56;;;;;;;15.13;8.30;;;10.60;99.90;;;;;;5031066;28;20237;-60
2022/04/27 08:02:24;;;;;;;12.00;7.77;;;10.60;99.90;;;;;;5030832;28;20229;-64
2022/04/27 08:04:50;;;;;;;10.80;7.73;;;10.60;99.90;;;;;;5030886;28;20730;-61
2022/04/27 08:07:17;;;;;;;19.40;8.50;;;10.70;99.90;;;;;;5030089;28;20235;-61
2022/04/27 08:09:44;;;;;;;12.87;8.50;;;10.80;99.90;;;;;;5030853;28;20238;-61
2022/04/27 08:12:11;;;;;;;12.40;7.47;;;10.90;99.90;;;;;;5031038;28;20205;-60
2022/04/27 08:14:38;;;;;;;12.90;8.27;;;11.10;99.90;;;;;;5030594;28;20639;-61
2022/04/27 08:17:05;;;;;;;13.20;8.73;;;11.40;99.90;;;;;;5030347;28;20213;-62
2022/04/27 08:19:33;;;;;;;14.93;7.53;;;11.50;99.90;;;;;;5030598;28;20226;-64
2022/04/27 08:22:02;;;;;;;8.57;5.50;;;11.60;99.90;;;;;;5030867;28;20233;-64
2022/04/27 08:24:29;;;;;;;8.33;5.90;;;11.50;99.90;;;;;;5030839;28;20202;-64
2022/04/27 08:26:56;;;;;;;11.77;6.63;;;11.40;99.90;;;;;;5030154;28;20206;-65
2022/04/27 08:29:22;;;;;;;12.17;6.77;;;11.40;99.90;;;;;;5030341;28;20233;-64
2022/04/27 08:31:49;;;;;;;10.30;7.00;;;11.30;99.90;;;;;;5030562;28;20202;-64
2022/04/27 08:34:16;;;;;;;11.73;6.17;;;11.40;99.90;;;;;;5030854;28;20214;-64
2022/04/27 08:36:44;;;;;;;9.07;6.23;;;11.50;99.90;;;;;;5030109;28;20206;-64
2022/04/27 08:39:10;;;;;;;10.83;6.53;;;11.60;99.90;;;;;;5030344;28;20235;-64
2022/04/27 08:41:37;;;;;;;10.17;5.90;;;11.60;99.90;;;;;;5030340;28;20223;-64
2022/04/27 08:44:07;;;;;;;11.50;6.13;;;11.60;99.90;;;;;;5030487;28;20214;-60
2022/04/27 08:46:36;;;;;;;9.80;6.67;;;11.60;99.90;;;;;;5030107;28;20211;-60
2022/04/27 08:49:03;;;;;;;17.10;7.30;;;11.90;99.90;;;;;;5030094;28;20639;-61
2022/04/27 08:51:30;;;;;;;12.00;7.10;;;12.10;99.90;;;;;;5030455;28;20206;-61
2022/04/27 08:53:58;;;;;;;8.73;5.70;;;12.10;99.90;;;;;;5030506;28;20299;-63
2022/04/27 08:56:26;;;;;;;9.63;4.73;;;12.10;99.90;;;;;;5029671;28;20226;-63
2022/04/27 08:58:53;;;;;;;7.93;5.27;;;12.00;99.90;;;;;;5030737;28;20239;-57
2022/04/27 09:01:20;;;;;;;8.53;5.30;;;12.30;99.90;;;;;;5030002;28;20227;-59
2022/04/27 09:03:47;;;;;;;8.50;5.53;;;12.50;99.90;;;;;;5034384;28;20587;-57
2022/04/27 09:06:15;;;;;;;14.03;5.27;;;12.50;99.90;;;;;;5034151;28;20212;-59
2022/04/27 09:08:45;;;;;;;10.50;6.43;;;12.30;99.90;;;;;;5034574;28;20272;-61
2022/04/27 09:11:17;;;;;;;7.07;5.67;;;12.20;99.90;;;;;;5034153;28;20751;-61
2022/04/27 09:13:49;;;;;;;7.90;5.93;;;12.20;99.90;;;;;;5034305;28;20206;-61
2022/04/27 09:16:18;;;;;;;10.67;6.83;;;12.30;99.90;;;;;;5033403;28;20289;-61
2022/04/27 09:21:59;;;;;;;4.73;3.97;;;12.70;99.90;;;;;;5033730;28;20609;-61
2022/04/27 09:24:26;;;;;;;8.93;6.83;;;12.30;99.90;;;;;;5033805;28;20290;-61
2022/04/27 09:27:03;;;;;;;11.33;7.23;;;12.30;99.90;;;;;;5033230;28;20245;-64
2022/04/27 09:29:30;;;;;;;10.10;7.30;;;12.20;99.90;;;;;;5033374;28;20222;-61
2022/04/27 09:31:58;;;;;;;12.90;7.80;;;12.50;99.90;;;;;;5033223;28;20577;-61
2022/04/27 09:34:28;;;;;;;11.77;7.50;;;12.80;99.90;;;;;;5033569;28;20241;-62
2022/04/27 09:36:56;;;;;;;8.83;6.90;;;13.00;99.90;;;;;;5032734;28;20291;-61
2022/04/27 09:39:25;;;;;;;13.07;7.33;;;13.20;99.90;;;;;;5033439;28;20635;-61
2022/04/27 09:41:51;;;;;;;9.43;7.00;;;13.20;99.90;;;;;;5032951;28;20315;-61
2022/04/27 09:44:29;;;;;;;11.63;7.70;;;13.00;99.90;;;;;;5033082;28;20209;-61
2022/04/27 09:46:57;;;;;;;9.57;6.87;;;12.80;99.90;;;;;;5032718;28;20232;-63
2022/04/27 09:49:24;;;;;;;9.17;7.30;;;12.90;99.90;;;;;;5032818;28;20230;-62
2022/04/27 09:51:52;;;;;;;14.10;8.23;;;13.00;99.90;;;;;;5033222;28;20207;-64
2022/04/27 09:54:20;;;;;;;11.40;8.47;;;13.00;99.90;;;;;;5032776;28;20210;-63
2022/04/27 09:56:54;;;;;;;12.73;8.57;;;13.00;99.90;;;;;;5032717;28;20207;-62
2022/04/27 09:59:26;;;;;;;12.03;8.33;;;13.00;99.90;;;;;;5034384;28;20235;-54
2022/04/27 10:01:56;;;;;;;9.10;6.53;;;13.00;99.90;;;;;;5033266;28;20615;-63
2022/04/27 10:04:25;;;;;;;11.47;7.87;;;13.00;99.90;;;;;;5033107;28;20297;-64
2022/04/27 10:06:53;;;;;;;14.43;7.33;;;12.80;99.90;;;;;;5031964;28;20628;-63
2022/04/27 10:09:41;;;;;;;11.20;8.00;;;13.00;99.90;;;;;;5032831;28;20237;-60
2022/04/27 10:12:11;;;;;;;14.03;8.80;;;13.00;99.90;;;;;;5030768;28;20293;-60
2022/04/27 10:14:38;;;;;;;12.17;7.93;;;13.10;99.90;;;;;;5032791;28;20209;-58
2022/04/27 10:17:06;;;;;;;13.77;7.63;;;13.30;99.90;;;;;;5031919;28;20205;-61
2022/04/27 10:19:33;;;;;;;11.47;8.27;;;13.60;99.90;;;;;;5032383;28;20241;-60
2022/04/27 10:22:01;;;;;;;10.37;7.87;;;13.60;99.90;;;;;;5032408;28;20735;-56
2022/04/27 10:24:52;;;;;;;10.47;7.93;;;13.70;99.90;;;;;;5032118;28;20206;-58
2022/04/27 10:27:20;;;;;;;9.07;7.50;;;13.70;99.90;;;;;;5032055;28;20217;-60
2022/04/27 10:29:52;;;;;;;12.47;8.60;;;13.80;99.90;;;;;;5031860;28;20240;-59
2022/04/27 10:32:36;;;;;;;10.70;7.70;;;13.80;99.90;;;;;;5032476;28;20293;-61
2022/04/27 10:35:21;;;;;;;9.57;7.30;;;13.80;99.90;;;;;;5032078;28;20232;-62
2022/04/27 10:37:49;;;;;;;13.27;7.97;;;13.50;99.90;;;;;;5031974;28;20237;-63
2022/04/27 10:40:29;;;;;;;10.17;7.17;;;13.40;99.90;;;;;;5032221;28;20232;-62
2022/04/27 10:43:01;;;;;;;10.13;7.77;;;13.60;99.90;;;;;;5031740;28;20233;-61
2022/04/27 10:45:29;;;;;;;12.20;7.77;;;13.80;99.90;;;;;;5031958;28;20210;-62
2022/04/27 10:47:57;;;;;;;10.60;8.10;;;14.00;99.90;;;;;;5031438;28;20202;-63
2022/04/27 10:50:33;;;;;;;11.33;7.70;;;14.10;99.90;;;;;;5031756;28;20590;-63
2022/04/27 10:53:15;;;;;;;11.83;7.83;;;14.00;99.90;;;;;;5031079;28;20256;-61
2022/04/27 10:55:43;;;;;;;7.30;6.00;;;13.60;99.90;;;;;;5031910;28;20214;-60
2022/04/27 10:58:15;;;;;;;10.23;7.70;;;13.80;99.90;;;;;;5032108;28;20230;-61
2022/04/27 11:01:24;;;;;;;9.00;7.30;;;13.80;99.90;;;;;;5031698;28;20226;-60
2022/04/27 11:03:57;;;;;;;10.93;7.60;;;13.60;99.90;;;;;;5028011;28;20263;-60
2022/04/27 11:06:25;;;;;;;15.67;7.27;;;13.70;99.90;;;;;;5030315;28;20676;-60
2022/04/27 11:09:08;;;;;;;13.00;8.17;;;13.60;99.90;;;;;;5031920;28;20577;-60
2022/04/27 11:11:51;;;;;;;11.13;7.83;;;13.90;99.90;;;;;;5031252;28;20209;-61
2022/04/27 11:14:19;;;;;;;8.73;7.07;;;14.20;99.90;;;;;;5031851;28;20206;-62
2022/04/27 11:16:47;;;;;;;9.87;7.77;;;14.50;99.90;;;;;;5030790;28;20215;-59
2022/04/27 11:19:16;;;;;;;10.30;6.70;;;14.50;99.90;;;;;;5031423;28;20644;-61
2022/04/27 11:21:43;;;;;;;11.73;7.57;;;14.70;99.90;;;;;;5031683;28;20696;-61
2022/04/27 11:24:11;;;;;;;9.97;7.70;;;14.80;99.90;;;;;;5030489;28;20211;-62
2022/04/27 11:26:41;;;;;;;10.53;7.33;;;14.70;99.90;;;;;;5030468;28;20213;-62
2022/04/27 11:29:08;;;;;;;12.57;7.30;;;14.90;99.90;;;;;;5031172;28;20265;-63
2022/04/27 11:31:35;;;;;;;11.20;7.50;;;15.00;99.90;;;;;;5031277;28;20222;-66
2022/04/27 11:34:02;;;;;;;13.73;7.87;;;15.10;99.90;;;;;;5031408;28;20217;-63
2022/04/27 11:36:30;;;;;;;12.53;7.03;;;15.10;99.90;;;;;;5030173;28;20213;-63
2022/04/27 11:38:57;;;;;;;9.77;7.73;;;15.00;99.90;;;;;;5031065;28;20226;-60
2022/04/27 11:41:24;;;;;;;6.57;5.20;;;15.00;99.90;;;;;;5031001;28;20205;-61
2022/04/27 11:43:54;;;;;;;8.50;7.33;;;14.50;99.90;;;;;;5031304;28;20617;-61
2022/04/27 11:46:21;;;;;;;11.10;7.80;;;14.50;99.90;;;;;;5030363;28;20703;-61
2022/04/27 11:48:48;;;;;;;11.40;7.77;;;14.50;99.90;;;;;;5030971;28;20230;-64
2022/04/27 11:51:15;;;;;;;11.53;7.70;;;14.80;99.90;;;;;;5031537;28;20738;-62
2022/04/27 11:53:45;;;;;;;10.97;7.97;;;15.00;99.90;;;;;;5030779;28;20202;-64
2022/04/27 11:56:12;;;;;;;9.80;8.53;;;15.10;99.90;;;;;;5030674;28;20646;-63
2022/04/27 11:58:38;;;;;;;10.33;7.77;;;15.40;99.90;;;;;;5030984;28;20238;-64
2022/04/27 12:01:06;;;;;;;13.27;8.17;;;15.60;99.90;;;;;;5030990;28;20208;-62
2022/04/27 12:03:41;;;;;;;11.30;7.87;;;15.80;99.90;;;;;;5031014;28;20232;-62
2022/04/27 12:06:08;;;;;;;10.27;8.00;;;15.90;99.90;;;;;;5029984;28;20316;-62
2022/04/27 12:08:43;;;;;;;10.37;8.17;;;16.00;99.90;;;;;;5031082;28;20206;-62
2022/04/27 12:11:10;;;;;;;12.83;9.37;;;15.70;99.90;;;;;;5030675;28;20217;-63
2022/04/27 12:13:37;;;;;;;14.70;9.03;;;14.90;99.90;;;;;;5031077;28;20206;-60
2022/04/27 12:16:04;;;;;;;14.07;8.87;;;14.80;99.90;;;;;;5029954;28;20692;-61
2022/04/27 12:18:31;;;;;;;12.57;8.23;;;14.80;99.90;;;;;;5030491;28;20202;-62
2022/04/27 12:20:59;;;;;;;11.77;7.77;;;14.90;99.90;;;;;;5031068;28;20230;-65
2022/04/27 12:23:37;;;;;;;12.67;8.03;;;15.00;99.90;;;;;;5030587;28;20276;-61
2022/04/27 12:26:07;;;;;;;12.97;8.53;;;15.40;99.90;;;;;;5030461;28;20228;-61
2022/04/27 12:28:41;;;;;;;10.97;8.23;;;15.70;99.90;;;;;;5030395;28;20207;-60
2022/04/27 12:31:09;;;;;;;12.50;8.27;;;15.70;99.90;;;;;;5030755;28;20333;-61
2022/04/27 12:33:38;;;;;;;10.77;8.10;;;15.70;99.90;;;;;;5030808;28;20202;-64
2022/04/27 12:38:57;;;;;;;11.10;8.97;;;16.00;99.90;;;;;;5034636;28;20320;-61
2022/04/27 12:41:34;;;;;;;11.13;9.37;;;16.10;99.90;;;;;;5033868;28;20275;-60
2022/04/27 12:44:08;;;;;;;11.40;8.37;;;15.90;99.90;;;;;;5034748;28;20320;-62
2022/04/27 12:46:37;;;;;;;12.33;9.40;;;15.90;99.90;;;;;;5033430;28;20209;-65
2022/04/27 12:49:06;;;;;;;16.37;9.53;;;15.90;99.90;;;;;;5033818;28;20256;-64
2022/04/27 12:51:35;;;;;;;14.17;9.03;;;15.90;99.90;;;;;;5034442;28;20650;-63
2022/04/27 12:54:02;;;;;;;16.00;9.60;;;15.90;99.90;;;;;;5035084;28;20681;-63
2022/04/27 12:56:33;;;;;;;10.80;8.70;;;15.60;99.90;;;;;;5034517;28;20202;-65
2022/04/27 12:59:04;;;;;;;10.83;7.87;;;15.60;99.90;;;;;;5034557;28;20222;-62
2022/04/27 13:01:31;;;;;;;11.97;8.87;;;15.60;99.90;;;;;;5034559;28;20206;-61
2022/04/27 13:03:58;;;;;;;13.73;8.07;;;15.80;99.90;;;;;;5034201;28;20232;-61
2022/04/27 13:06:25;;;;;;;12.93;7.90;;;15.80;99.90;;;;;;5033861;28;20221;-66
2022/04/27 13:08:52;;;;;;;12.77;8.50;;;15.70;99.90;;;;;;5034444;28;20230;-61